createdAt,value
2017-10-09T00:04:52.138Z,91.10
2017-10-09T00:07:21.895Z,91.10
2017-10-09T00:09:49.847Z,91.10
2017-10-09T00:12:17.515Z,91.00
2017-10-09T00:14:45.255Z,91.00
2017-10-09T00:17:14.466Z,91.00
2017-10-09T00:19:42.220Z,91.00
2017-10-09T00:22:09.794Z,91.00
2017-10-09T00:24:37.349Z,91.00
2017-10-09T00:27:06.476Z,91.00
2017-10-09T00:29:34.051Z,91.10
2017-10-09T00:32:01.681Z,91.00
2017-10-09T00:34:29.216Z,91.10
2017-10-09T00:36:57.075Z,91.10
2017-10-09T00:39:24.591Z,90.90
2017-10-09T00:41:52.043Z,91.10
2017-10-09T00:44:19.509Z,91.10
2017-10-09T00:49:30.904Z,91.10
2017-10-09T00:51:59.012Z,91.10
2017-10-09T00:54:27.924Z,91.20
2017-10-09T00:56:56.294Z,91.20
2017-10-09T00:59:23.761Z,91.10
2017-10-09T01:01:51.299Z,91.20
2017-10-09T01:04:18.953Z,91.10
2017-10-09T01:06:46.484Z,91.40
2017-10-09T01:09:14.509Z,91.10
2017-10-09T01:11:42.887Z,91.00
2017-10-09T01:14:12.087Z,91.00
2017-10-09T01:16:40.363Z,91.00
2017-10-09T01:19:08.554Z,90.80
2017-10-09T01:21:36.663Z,91.10
2017-10-09T01:24:05.083Z,91.30
2017-10-09T01:26:33.507Z,91.20
2017-10-09T01:29:01.355Z,91.10
2017-10-09T01:31:29.157Z,91.20
2017-10-09T01:33:57.482Z,91.30
2017-10-09T01:36:27.584Z,91.20
2017-10-09T01:38:57.810Z,91.20
2017-10-09T01:41:26.226Z,91.20
2017-10-09T01:43:55.071Z,91.10
2017-10-09T01:46:23.404Z,91.20
2017-10-09T01:48:51.681Z,91.10
2017-10-09T01:51:20.159Z,91.10
2017-10-09T01:53:48.537Z,91.10
2017-10-09T01:56:19.179Z,91.20
2017-10-09T01:58:47.770Z,91.10
2017-10-09T02:01:16.049Z,91.20
2017-10-09T02:03:44.703Z,91.20
2017-10-09T02:06:12.777Z,91.30
2017-10-09T02:08:40.753Z,91.20
2017-10-09T02:11:08.673Z,91.10
2017-10-09T02:13:38.287Z,91.20
2017-10-09T02:16:06.731Z,91.10
2017-10-09T02:18:35.864Z,91.30
2017-10-09T02:21:04.072Z,91.20
2017-10-09T02:23:32.233Z,91.10
2017-10-09T02:25:59.934Z,91.10
2017-10-09T02:28:27.467Z,91.10
2017-10-09T02:30:55.446Z,91.20
2017-10-09T02:33:23.570Z,91.20
2017-10-09T02:35:52.611Z,91.10
2017-10-09T02:38:20.494Z,91.10
2017-10-09T02:40:49.424Z,91.10
2017-10-09T02:43:17.435Z,91.20
2017-10-09T02:45:45.879Z,91.10
2017-10-09T02:48:13.975Z,91.10
2017-10-09T02:50:42.217Z,91.10
2017-10-09T02:53:10.434Z,91.10
2017-10-09T02:55:39.554Z,91.10
2017-10-09T02:58:08.289Z,91.00
2017-10-09T03:00:37.876Z,91.00
2017-10-09T03:03:06.986Z,91.00
2017-10-09T03:05:34.643Z,90.90
2017-10-09T03:08:03.341Z,91.10
2017-10-09T03:10:31.250Z,91.00
2017-10-09T03:12:59.735Z,91.20
2017-10-09T03:15:27.432Z,91.10
2017-10-09T03:17:55.002Z,91.20
2017-10-09T03:20:23.448Z,91.30
2017-10-09T03:22:52.483Z,91.20
2017-10-09T03:25:20.986Z,91.20
2017-10-09T03:28:03.484Z,91.00
2017-10-09T03:30:31.577Z,91.20
2017-10-09T03:32:59.434Z,91.10
2017-10-09T03:35:28.766Z,91.00
2017-10-09T03:37:56.587Z,91.00
2017-10-09T03:40:24.501Z,91.10
2017-10-09T03:42:52.303Z,91.10
2017-10-09T03:45:19.941Z,91.20
2017-10-09T03:47:48.598Z,91.10
2017-10-09T03:50:16.145Z,91.00
2017-10-09T03:52:43.681Z,91.10
2017-10-09T03:55:11.212Z,91.10
2017-10-09T03:57:38.662Z,91.00
2017-10-09T04:00:07.091Z,91.20
2017-10-09T04:02:34.634Z,91.20
2017-10-09T04:05:02.144Z,91.40
2017-10-09T04:07:29.637Z,91.50
2017-10-09T04:09:57.104Z,91.40
2017-10-09T04:12:24.570Z,91.30
2017-10-09T04:14:52.811Z,91.50
2017-10-09T04:17:20.270Z,91.50
2017-10-09T04:19:47.727Z,91.40
2017-10-09T04:22:15.844Z,91.30
2017-10-09T04:24:44.171Z,91.20
2017-10-09T04:27:12.968Z,91.10
2017-10-09T04:29:41.742Z,91.00
2017-10-09T04:32:10.060Z,91.30
2017-10-09T04:34:38.712Z,91.10
2017-10-09T04:37:07.379Z,91.10
2017-10-09T04:39:35.756Z,91.10
2017-10-09T04:42:14.066Z,91.00
2017-10-09T04:44:44.749Z,91.20
2017-10-09T04:53:32.613Z,91.20
2017-10-09T04:56:09.001Z,91.20
2017-10-09T04:58:36.869Z,91.10
2017-10-09T05:01:05.039Z,91.10
2017-10-09T05:03:32.551Z,91.20
2017-10-09T05:06:01.790Z,91.10
2017-10-09T05:08:29.254Z,91.60
2017-10-09T05:10:56.710Z,91.70
2017-10-09T05:13:24.240Z,91.70
2017-10-09T05:15:51.834Z,91.50
2017-10-09T05:18:19.336Z,91.70
2017-10-09T05:20:46.925Z,91.20
2017-10-09T05:23:16.058Z,90.60
2017-10-09T05:25:44.251Z,90.60
2017-10-09T05:28:11.765Z,90.60
2017-10-09T05:30:39.237Z,90.70
2017-10-09T05:33:06.736Z,90.90
2017-10-09T05:35:34.221Z,91.00
2017-10-09T05:38:02.755Z,91.10
2017-10-09T05:40:30.228Z,91.10
2017-10-09T05:42:57.735Z,91.30
2017-10-09T05:45:25.264Z,91.30
2017-10-09T05:47:52.750Z,91.20
2017-10-09T05:50:20.675Z,91.20
2017-10-09T05:52:48.146Z,91.20
2017-10-09T05:55:15.635Z,91.20
2017-10-09T05:57:43.849Z,91.00
2017-10-09T06:00:11.479Z,91.00
2017-10-09T06:02:39.385Z,91.00
2017-10-09T06:05:06.957Z,90.90
2017-10-09T06:07:34.547Z,90.90
2017-10-09T06:10:02.187Z,90.90
2017-10-09T06:12:29.794Z,91.00
2017-10-09T06:14:57.325Z,91.10
2017-10-09T06:17:25.613Z,91.20
2017-10-09T06:19:53.286Z,91.10
2017-10-09T06:22:20.824Z,91.20
2017-10-09T06:24:48.579Z,91.30
2017-10-09T06:27:16.403Z,91.20
2017-10-09T06:29:44.244Z,91.30
2017-10-09T06:32:12.693Z,91.30
2017-10-09T06:34:40.242Z,91.30
2017-10-09T06:37:08.141Z,91.30
2017-10-09T06:39:35.787Z,91.30
2017-10-09T06:42:03.658Z,91.30
2017-10-09T06:44:32.136Z,91.30
2017-10-09T06:46:59.995Z,91.10
2017-10-09T06:49:28.066Z,90.80
2017-10-09T06:51:55.689Z,90.90
2017-10-09T06:54:23.192Z,90.80
2017-10-09T06:56:52.901Z,90.00
2017-10-09T06:59:20.927Z,90.00
2017-10-09T07:01:48.797Z,90.10
2017-10-09T07:04:16.575Z,89.90
2017-10-09T07:06:45.820Z,90.00
2017-10-09T07:09:13.361Z,90.10
2017-10-09T07:11:40.937Z,89.60
2017-10-09T07:14:08.579Z,89.20
2017-10-09T07:16:36.568Z,89.70
2017-10-09T07:19:04.466Z,89.00
2017-10-09T07:21:32.188Z,89.00
2017-10-09T07:24:00.078Z,89.10
2017-10-09T07:26:27.966Z,88.40
2017-10-09T07:28:56.074Z,88.30
2017-10-09T07:31:25.391Z,88.80
2017-10-09T07:33:54.262Z,88.70
2017-10-09T07:36:22.310Z,88.10
2017-10-09T07:38:50.922Z,87.90
2017-10-09T07:41:18.857Z,88.30
2017-10-09T07:43:46.715Z,87.40
2017-10-09T07:46:15.309Z,87.50
2017-10-09T07:48:43.999Z,87.40
2017-10-09T07:51:12.265Z,87.60
2017-10-09T07:53:39.900Z,87.00
2017-10-09T07:56:08.534Z,87.10
2017-10-09T07:58:36.871Z,87.20
2017-10-09T08:01:04.810Z,86.70
2017-10-09T08:03:32.347Z,86.50
2017-10-09T08:05:59.814Z,85.80
2017-10-09T08:08:27.309Z,85.80
2017-10-09T08:10:54.782Z,86.30
2017-10-09T08:13:22.264Z,85.20
2017-10-09T08:15:49.745Z,85.40
2017-10-09T08:18:17.267Z,85.10
2017-10-09T08:20:44.730Z,85.40
2017-10-09T08:23:12.209Z,85.20
2017-10-09T08:25:39.665Z,84.60
2017-10-09T08:28:07.349Z,85.30
2017-10-09T08:30:34.961Z,84.90
2017-10-09T08:33:02.522Z,84.90
2017-10-09T08:35:30.063Z,84.50
2017-10-09T08:37:57.530Z,83.90
2017-10-09T08:40:25.050Z,84.10
2017-10-09T08:42:52.742Z,85.10
2017-10-09T08:45:20.462Z,83.80
2017-10-09T08:47:49.357Z,84.30
2017-10-09T08:50:17.596Z,83.40
2017-10-09T08:52:47.005Z,82.90
2017-10-09T08:55:16.131Z,83.80
2017-10-09T08:57:44.979Z,83.80
2017-10-09T09:00:15.211Z,84.10
2017-10-09T09:02:44.599Z,84.80
2017-10-09T09:05:12.816Z,86.10
2017-10-09T09:07:43.080Z,86.80
2017-10-09T09:10:11.617Z,86.80
2017-10-09T09:12:39.788Z,87.60
2017-10-09T09:15:09.456Z,88.00
2017-10-09T09:17:37.131Z,88.20
2017-10-09T09:20:05.545Z,88.20
2017-10-09T09:22:33.511Z,88.60
2017-10-09T09:25:01.626Z,89.10
2017-10-09T09:27:29.864Z,89.50
2017-10-09T09:29:58.887Z,88.40
2017-10-09T09:32:27.498Z,89.10
2017-10-09T09:35:00.736Z,89.00
2017-10-09T09:37:29.095Z,89.40
2017-10-09T09:42:30.281Z,89.10
2017-10-09T09:44:58.413Z,89.50
2017-10-09T09:47:28.337Z,87.50
2017-10-09T09:49:56.119Z,87.60
2017-10-09T09:52:28.050Z,87.70
2017-10-09T09:54:56.623Z,88.30
2017-10-09T09:57:24.432Z,87.90
2017-10-09T09:59:53.930Z,87.30
2017-10-09T10:02:23.315Z,87.00
2017-10-09T10:04:51.070Z,87.60
2017-10-09T10:07:18.540Z,87.50
2017-10-09T10:09:46.010Z,87.00
2017-10-09T10:12:13.471Z,85.40
2017-10-09T10:14:40.954Z,84.60
2017-10-09T10:17:08.426Z,84.70
2017-10-09T10:19:36.465Z,85.50
2017-10-09T10:22:04.199Z,85.20
2017-10-09T10:24:32.063Z,85.40
2017-10-09T10:26:59.781Z,85.50
2017-10-09T10:29:27.413Z,85.80
2017-10-09T10:31:55.197Z,86.30
2017-10-09T10:34:22.707Z,86.10
2017-10-09T10:36:50.967Z,86.40
2017-10-09T10:39:18.635Z,86.40
2017-10-09T10:41:46.275Z,86.30
2017-10-09T10:44:13.818Z,85.80
2017-10-09T10:46:41.543Z,85.40
2017-10-09T10:49:09.046Z,85.10
2017-10-09T10:51:36.503Z,84.60
2017-10-09T10:54:03.959Z,85.10
2017-10-09T10:56:31.430Z,85.00
2017-10-09T10:58:58.893Z,85.10
2017-10-09T11:01:26.343Z,84.70
2017-10-09T11:03:53.794Z,84.50
2017-10-09T11:06:21.254Z,82.80
2017-10-09T11:08:48.709Z,82.40
2017-10-09T11:11:16.150Z,79.50
2017-10-09T11:13:43.632Z,77.90
2017-10-09T11:16:11.098Z,78.30
2017-10-09T11:18:38.542Z,77.80
2017-10-09T11:21:05.998Z,77.60
2017-10-09T11:23:33.457Z,76.30
2017-10-09T11:26:00.943Z,74.60
2017-10-09T11:28:28.638Z,74.50
2017-10-09T11:30:56.160Z,75.00
2017-10-09T11:33:23.904Z,73.90
2017-10-09T11:35:51.527Z,74.20
2017-10-09T11:38:19.155Z,73.60
2017-10-09T11:40:47.139Z,74.10
2017-10-09T11:43:14.871Z,72.00
2017-10-09T11:45:42.626Z,71.50
2017-10-09T11:48:10.256Z,74.40
2017-10-09T11:50:37.925Z,74.40
2017-10-09T11:53:05.403Z,72.50
2017-10-09T11:55:32.895Z,71.00
2017-10-09T11:58:00.337Z,70.20
2017-10-09T12:00:27.811Z,70.10
2017-10-09T12:02:55.314Z,71.80
2017-10-09T12:05:22.823Z,72.20
2017-10-09T12:07:50.287Z,72.40
2017-10-09T12:10:17.806Z,71.80
2017-10-09T12:12:45.288Z,72.00
2017-10-09T12:15:13.544Z,72.50
2017-10-09T12:20:14.916Z,71.80
2017-10-09T12:22:43.401Z,72.80
2017-10-09T12:25:10.934Z,71.90
2017-10-09T12:27:38.470Z,71.20
2017-10-09T12:30:05.978Z,71.90
2017-10-09T12:32:33.425Z,71.40
2017-10-09T12:35:00.905Z,71.60
2017-10-09T12:37:28.363Z,71.90
2017-10-09T12:39:55.830Z,71.80
2017-10-09T12:42:24.427Z,71.40
2017-10-09T12:44:51.878Z,71.80
2017-10-09T12:47:19.315Z,70.50
2017-10-09T12:49:46.803Z,70.90
2017-10-09T12:52:14.285Z,72.10
2017-10-09T12:54:41.787Z,72.70
2017-10-09T12:57:09.254Z,72.70
2017-10-09T12:59:36.734Z,72.90
2017-10-09T13:02:04.238Z,73.30
2017-10-09T13:04:31.695Z,72.80
2017-10-09T13:06:59.191Z,73.50
2017-10-09T13:09:26.723Z,74.20
2017-10-09T13:11:54.952Z,74.90
2017-10-09T13:14:22.423Z,74.90
2017-10-09T13:16:49.923Z,75.20
2017-10-09T13:19:18.193Z,75.70
2017-10-09T13:21:45.704Z,75.70
2017-10-09T13:24:13.194Z,75.50
2017-10-09T13:26:41.443Z,74.70
2017-10-09T13:29:09.046Z,74.70
2017-10-09T13:31:38.447Z,73.90
2017-10-09T13:34:05.950Z,74.20
2017-10-09T13:36:33.471Z,74.40
2017-10-09T13:39:01.030Z,74.70
2017-10-09T13:41:32.902Z,75.00
2017-10-09T13:44:00.439Z,74.80
2017-10-09T13:46:27.975Z,75.10
2017-10-09T13:48:55.438Z,75.60
2017-10-09T13:51:24.243Z,75.70
2017-10-09T13:53:51.788Z,75.60
2017-10-09T13:56:19.233Z,76.00
2017-10-09T13:58:46.690Z,75.70
2017-10-09T14:01:14.156Z,75.90
2017-10-09T14:03:42.423Z,76.20
2017-10-09T14:06:10.619Z,76.30
2017-10-09T14:08:38.850Z,75.40
2017-10-09T14:11:07.442Z,75.40
2017-10-09T14:13:34.910Z,75.00
2017-10-09T14:16:02.360Z,76.00
2017-10-09T14:18:29.836Z,76.00
2017-10-09T14:20:57.322Z,76.90
2017-10-09T14:23:24.951Z,77.20
2017-10-09T14:25:52.545Z,77.20
2017-10-09T14:28:20.408Z,77.90
2017-10-09T14:30:47.972Z,78.60
2017-10-09T14:40:37.936Z,80.40
2017-10-09T14:43:05.406Z,80.40
2017-10-09T14:45:32.917Z,80.80
2017-10-09T14:48:01.880Z,81.80
2017-10-09T14:50:30.234Z,83.50
2017-10-09T14:53:00.102Z,83.50
2017-10-09T14:55:27.801Z,85.10
2017-10-09T14:57:56.412Z,85.70
2017-10-09T15:00:23.919Z,86.40
2017-10-09T15:02:51.473Z,86.30
2017-10-09T15:05:19.064Z,87.00
2017-10-09T15:07:48.284Z,86.50
2017-10-09T15:10:15.748Z,86.70
2017-10-09T15:12:43.224Z,85.80
2017-10-09T15:15:10.699Z,85.80
2017-10-09T15:17:38.994Z,86.40
2017-10-09T15:20:07.681Z,85.70
2017-10-09T15:22:41.576Z,85.70
2017-10-09T15:25:09.268Z,85.70
2017-10-09T15:27:40.718Z,88.30
2017-10-09T15:30:29.136Z,87.90
2017-10-09T15:40:45.116Z,89.10
2017-10-09T15:43:13.384Z,89.00
2017-10-09T15:45:41.170Z,89.20
2017-10-09T17:10:21.108Z,89.90
2017-10-09T17:12:48.597Z,89.00
2017-10-09T17:15:16.244Z,89.30
2017-10-09T17:17:43.710Z,89.60
2017-10-09T17:20:11.210Z,89.60
2017-10-09T17:22:39.476Z,89.80
2017-10-09T17:25:06.932Z,89.80
2017-10-09T17:27:34.491Z,90.00
2017-10-09T17:30:02.763Z,89.50
2017-10-09T17:32:30.334Z,89.50
2017-10-09T17:34:57.796Z,89.60
2017-10-09T17:37:25.309Z,89.80
2017-10-09T17:39:52.777Z,90.00
2017-10-09T17:42:20.318Z,89.90
2017-10-09T17:44:47.854Z,89.90
2017-10-09T17:47:15.366Z,89.70
2017-10-09T17:49:42.927Z,89.70
2017-10-09T17:52:10.405Z,90.00
2017-10-09T17:54:37.954Z,89.20
2017-10-09T17:57:05.422Z,89.00
2017-10-09T17:59:32.978Z,89.00
2017-10-09T18:02:00.591Z,89.10
2017-10-09T18:04:28.089Z,88.80
2017-10-09T18:06:55.639Z,88.70
2017-10-09T18:09:23.163Z,88.70
2017-10-09T18:11:50.691Z,88.70
2017-10-09T18:14:18.240Z,88.50
2017-10-09T18:16:45.795Z,88.50
2017-10-09T18:19:13.305Z,88.70
2017-10-09T18:21:40.806Z,88.40
2017-10-09T18:24:08.274Z,88.30
2017-10-09T18:26:35.728Z,88.20
2017-10-09T18:29:03.278Z,88.40
2017-10-09T18:31:30.772Z,88.10
2017-10-09T18:33:58.276Z,88.00
2017-10-09T18:36:26.518Z,87.90
2017-10-09T18:38:54.014Z,87.90
2017-10-09T18:41:21.474Z,88.20
2017-10-09T18:43:48.988Z,88.10
2017-10-09T18:46:16.478Z,88.10
2017-10-09T18:48:44.709Z,88.20
2017-10-09T18:51:12.327Z,88.20
2017-10-09T18:53:39.782Z,88.00
2017-10-09T18:56:07.290Z,88.00
2017-10-09T18:58:34.765Z,88.10
2017-10-09T19:01:02.368Z,88.20
2017-10-09T19:03:29.863Z,88.10
2017-10-09T19:05:57.331Z,88.10
2017-10-09T19:08:24.817Z,88.20
2017-10-09T19:10:52.266Z,88.10
2017-10-09T19:13:19.751Z,88.00
2017-10-09T19:15:47.337Z,88.00
2017-10-09T19:18:14.847Z,87.90
2017-10-09T19:20:42.409Z,87.80
2017-10-09T19:23:09.974Z,87.80
2017-10-09T19:25:37.541Z,87.80
2017-10-09T19:28:04.986Z,88.50
2017-10-09T19:30:33.222Z,87.90
2017-10-09T19:33:00.730Z,87.80
2017-10-09T19:35:28.245Z,87.70
2017-10-09T19:37:56.300Z,87.80
2017-10-09T19:40:23.809Z,87.80
2017-10-09T19:42:52.079Z,87.80
2017-10-09T19:45:19.652Z,87.80
2017-10-09T19:47:47.174Z,87.80
2017-10-09T19:50:14.848Z,87.90
2017-10-09T19:52:42.306Z,88.00
2017-10-09T19:55:09.773Z,88.20
2017-10-09T19:57:38.353Z,88.70
2017-10-09T20:00:05.930Z,88.10
2017-10-09T20:02:33.434Z,88.20
2017-10-09T20:05:00.922Z,88.20
2017-10-09T20:07:28.389Z,88.30
2017-10-09T20:09:55.855Z,88.90
2017-10-09T20:12:23.981Z,88.40
2017-10-09T20:14:51.458Z,88.30
2017-10-09T20:17:18.943Z,88.30
2017-10-09T20:19:47.178Z,88.50
2017-10-09T20:22:14.658Z,88.50
2017-10-09T20:24:42.129Z,88.50
2017-10-09T20:27:09.635Z,88.40
2017-10-09T20:29:37.130Z,88.40
2017-10-09T20:32:05.425Z,88.60
2017-10-09T20:34:32.939Z,88.70
2017-10-09T20:37:00.403Z,88.80
2017-10-09T20:39:27.890Z,88.60
2017-10-09T20:41:55.413Z,88.70
2017-10-09T20:44:23.232Z,88.90
2017-10-09T20:46:50.722Z,89.00
2017-10-09T20:49:18.232Z,89.00
2017-10-09T20:51:45.779Z,89.30
2017-10-09T20:54:14.011Z,89.00
2017-10-09T20:56:41.600Z,88.90
2017-10-09T20:59:09.099Z,89.00
2017-10-09T21:01:36.541Z,89.40
2017-10-09T21:04:04.121Z,89.70
2017-10-09T21:06:31.613Z,89.60
2017-10-09T21:08:59.098Z,89.20
2017-10-09T21:11:26.573Z,89.50
2017-10-09T21:13:54.074Z,90.00
2017-10-09T21:16:21.618Z,89.70
2017-10-09T21:18:49.142Z,89.50
2017-10-09T21:21:16.811Z,89.30
2017-10-09T21:23:45.187Z,89.00
2017-10-09T21:26:12.645Z,89.00
2017-10-09T21:28:40.111Z,88.70
2017-10-09T21:31:07.550Z,88.70
2017-10-09T21:33:35.063Z,88.70
2017-10-09T21:36:02.561Z,88.70
2017-10-09T21:38:30.888Z,88.70
2017-10-09T21:40:58.407Z,88.70
2017-10-09T21:43:26.029Z,88.60
2017-10-09T21:45:53.495Z,88.40
2017-10-09T21:48:21.031Z,88.40
2017-10-09T21:50:48.506Z,88.30
2017-10-09T21:53:15.983Z,88.30
2017-10-09T21:55:43.437Z,88.10
2017-10-09T21:58:10.909Z,88.20
2017-10-09T22:00:38.477Z,88.10
2017-10-09T22:03:05.995Z,87.90
2017-10-09T22:05:33.470Z,88.00
2017-10-09T22:08:00.933Z,88.10
2017-10-09T22:10:29.180Z,88.20
2017-10-09T22:12:56.686Z,88.10
2017-10-09T22:15:24.146Z,88.20
2017-10-09T22:20:30.303Z,88.00
2017-10-09T22:22:58.536Z,88.30
2017-10-09T22:25:26.055Z,88.30
2017-10-09T22:27:53.514Z,88.20
2017-10-09T22:30:20.967Z,88.20
2017-10-09T22:32:48.435Z,88.30
2017-10-09T22:35:15.885Z,88.20
2017-10-09T22:37:43.409Z,88.30
2017-10-09T22:40:10.886Z,88.30
2017-10-09T22:42:38.345Z,88.20
2017-10-09T22:45:05.920Z,88.30
2017-10-09T22:47:33.471Z,88.10
2017-10-09T22:50:01.810Z,88.70
2017-10-09T22:52:29.306Z,88.20
2017-10-09T22:54:56.829Z,88.20
2017-10-09T22:57:24.298Z,88.20
2017-10-09T22:59:51.827Z,88.00
2017-10-09T23:02:19.394Z,88.10
2017-10-09T23:04:46.996Z,88.20
2017-10-09T23:07:14.616Z,88.10
2017-10-09T23:09:42.102Z,88.20
2017-10-09T23:12:10.381Z,88.20
2017-10-09T23:14:38.418Z,88.20
2017-10-09T23:17:05.902Z,87.90
2017-10-09T23:19:33.356Z,87.90
2017-10-09T23:22:00.843Z,88.00
2017-10-09T23:24:28.310Z,87.90
2017-10-09T23:26:55.759Z,88.60
2017-10-09T23:29:23.225Z,88.00
2017-10-09T23:31:50.682Z,87.90
2017-10-09T23:34:18.135Z,88.10
2017-10-09T23:36:45.595Z,88.00
2017-10-09T23:39:13.062Z,88.10
2017-10-09T23:41:40.519Z,88.10
2017-10-09T23:44:07.970Z,88.10
2017-10-09T23:46:35.427Z,88.10
2017-10-09T23:49:02.891Z,88.00
2017-10-09T23:51:30.340Z,88.10
2017-10-09T23:53:57.803Z,88.10
2017-10-09T23:56:25.257Z,88.20
2017-10-09T23:58:52.721Z,88.30
